createdAt,value
2018-02-05T00:00:51.014Z,99.99
2018-02-05T00:02:42.999Z,99.99
2018-02-05T00:03:42.778Z,99.99
2018-02-05T00:05:34.666Z,99.99
2018-02-05T00:06:34.461Z,99.99
2018-02-05T00:08:26.438Z,99.99
2018-02-05T00:09:26.357Z,99.99
2018-02-05T00:11:18.016Z,99.99
2018-02-05T00:12:18.042Z,99.99
2018-02-05T00:14:09.909Z,99.99
2018-02-05T00:15:09.602Z,99.99
2018-02-05T00:17:02.042Z,99.99
2018-02-05T00:18:01.352Z,99.99
2018-02-05T00:19:54.019Z,99.99
2018-02-05T00:20:53.016Z,99.99
2018-02-05T00:22:44.838Z,99.99
2018-02-05T00:23:44.758Z,99.99
2018-02-05T00:25:36.667Z,99.99
2018-02-05T00:26:36.647Z,99.99
2018-02-05T00:28:28.427Z,99.99
2018-02-05T00:29:28.315Z,99.99
2018-02-05T00:31:20.076Z,99.99
2018-02-05T00:32:19.965Z,99.99
2018-02-05T00:34:11.866Z,99.99
2018-02-05T00:35:11.830Z,99.99
2018-02-05T00:37:03.477Z,99.99
2018-02-05T00:38:03.403Z,99.99
2018-02-05T00:39:55.475Z,99.99
2018-02-05T00:40:55.208Z,99.99
2018-02-05T00:42:47.060Z,99.99
2018-02-05T00:43:47.027Z,99.99
2018-02-05T00:45:39.828Z,99.99
2018-02-05T00:46:38.674Z,99.99
2018-02-05T00:48:30.540Z,99.99
2018-02-05T00:49:30.281Z,99.99
2018-02-05T00:51:22.155Z,99.99
2018-02-05T00:52:22.133Z,99.99
2018-02-05T00:54:13.952Z,99.99
2018-02-05T00:55:13.763Z,99.99
2018-02-05T00:57:05.596Z,99.99
2018-02-05T00:58:05.525Z,99.99
2018-02-05T00:59:57.513Z,99.99
2018-02-05T01:00:57.379Z,99.99
2018-02-05T01:02:49.116Z,99.99
2018-02-05T01:03:48.972Z,99.99
2018-02-05T01:05:40.881Z,99.99
2018-02-05T01:06:40.770Z,99.99
2018-02-05T01:08:32.597Z,99.99
2018-02-05T01:09:33.665Z,99.99
2018-02-05T01:11:24.302Z,99.99
2018-02-05T01:12:24.218Z,99.99
2018-02-05T01:14:16.320Z,99.99
2018-02-05T01:15:15.974Z,99.99
2018-02-05T01:17:07.676Z,99.99
2018-02-05T01:18:07.675Z,99.99
2018-02-05T01:19:59.828Z,99.99
2018-02-05T01:20:59.413Z,99.99
2018-02-05T01:22:51.728Z,99.99
2018-02-05T01:23:51.228Z,99.99
2018-02-05T01:25:43.028Z,99.99
2018-02-05T01:26:43.098Z,99.99
2018-02-05T01:28:34.802Z,99.99
2018-02-05T01:29:34.659Z,99.99
2018-02-05T01:31:26.607Z,99.99
2018-02-05T01:32:26.610Z,99.99
2018-02-05T01:34:18.334Z,99.99
2018-02-05T01:35:18.227Z,99.99
2018-02-05T01:37:10.039Z,99.99
2018-02-05T01:38:09.963Z,99.99
2018-02-05T01:40:01.935Z,99.99
2018-02-05T01:41:01.803Z,99.99
2018-02-05T01:42:53.658Z,99.99
2018-02-05T01:43:53.426Z,99.99
2018-02-05T01:45:45.302Z,99.99
2018-02-05T01:46:45.104Z,99.99
2018-02-05T01:48:37.187Z,99.99
2018-02-05T01:49:37.101Z,99.99
2018-02-05T01:51:29.036Z,99.99
2018-02-05T01:52:28.937Z,99.99
2018-02-05T01:54:20.685Z,99.99
2018-02-05T01:55:20.752Z,99.99
2018-02-05T01:57:12.423Z,99.99
2018-02-05T01:58:12.338Z,99.99
2018-02-05T02:00:04.102Z,99.99
2018-02-05T02:01:04.066Z,99.99
2018-02-05T02:02:55.985Z,99.99
2018-02-05T02:03:55.704Z,99.99
2018-02-05T02:05:47.507Z,99.99
2018-02-05T02:06:47.403Z,99.99
2018-02-05T02:08:39.349Z,99.99
2018-02-05T02:09:39.155Z,99.99
2018-02-05T02:11:31.423Z,99.99
2018-02-05T02:12:30.985Z,99.99
2018-02-05T02:14:22.847Z,99.99
2018-02-05T02:15:22.889Z,99.99
2018-02-05T02:17:14.588Z,99.99
2018-02-05T02:18:15.274Z,99.99
2018-02-05T02:20:06.378Z,99.99
2018-02-05T02:21:06.349Z,99.99
2018-02-05T02:22:58.348Z,99.99
2018-02-05T02:23:58.139Z,99.99
2018-02-05T02:25:49.863Z,99.99
2018-02-05T02:26:49.868Z,99.99
2018-02-05T02:28:41.533Z,99.99
2018-02-05T02:29:41.438Z,99.99
2018-02-05T02:31:33.243Z,99.99
2018-02-05T02:32:33.142Z,99.99
2018-02-05T02:34:24.899Z,99.99
2018-02-05T02:35:24.884Z,99.99
2018-02-05T02:37:16.870Z,99.99
2018-02-05T02:38:16.615Z,99.99
2018-02-05T02:40:08.438Z,99.99
2018-02-05T02:41:08.388Z,99.99
2018-02-05T02:43:00.466Z,99.99
2018-02-05T02:44:00.161Z,99.99
2018-02-05T02:45:51.937Z,99.99
2018-02-05T02:46:51.893Z,99.99
2018-02-05T02:48:43.549Z,99.99
2018-02-05T02:49:43.449Z,99.99
2018-02-05T02:51:35.370Z,99.99
2018-02-05T02:52:35.314Z,99.99
2018-02-05T02:54:28.573Z,99.99
2018-02-05T02:55:27.175Z,99.99
2018-02-05T02:57:19.112Z,99.99
2018-02-05T02:58:18.999Z,99.99
2018-02-05T03:00:10.998Z,99.99
2018-02-05T03:01:10.800Z,99.99
2018-02-05T03:03:02.476Z,99.99
2018-02-05T03:04:02.759Z,99.99
2018-02-05T03:05:54.230Z,99.99
2018-02-05T03:06:54.086Z,99.99
2018-02-05T03:08:45.925Z,99.99
2018-02-05T03:09:45.793Z,99.99
2018-02-05T03:11:37.601Z,99.99
2018-02-05T03:12:37.538Z,99.99
2018-02-05T03:14:29.365Z,99.99
2018-02-05T03:15:29.291Z,99.99
2018-02-05T03:17:21.307Z,99.99
2018-02-05T03:18:21.132Z,99.99
2018-02-05T03:20:12.913Z,99.99
2018-02-05T03:21:12.742Z,99.99
2018-02-05T03:23:04.607Z,99.99
2018-02-05T03:24:04.527Z,99.99
2018-02-05T03:25:56.430Z,99.99
2018-02-05T03:26:56.252Z,99.99
2018-02-05T03:28:47.980Z,99.99
2018-02-05T03:29:47.972Z,99.99
2018-02-05T03:31:39.834Z,99.99
2018-02-05T03:32:39.702Z,99.99
2018-02-05T03:34:31.523Z,99.99
2018-02-05T03:35:31.496Z,99.99
2018-02-05T03:37:23.327Z,99.99
2018-02-05T03:38:23.288Z,99.99
2018-02-05T03:40:15.028Z,99.99
2018-02-05T03:41:14.875Z,99.99
2018-02-05T03:43:06.741Z,99.99
2018-02-05T03:44:06.556Z,99.99
2018-02-05T03:45:58.933Z,99.99
2018-02-05T03:46:58.398Z,99.99
2018-02-05T03:48:50.213Z,99.99
2018-02-05T03:49:50.088Z,99.99
2018-02-05T03:51:42.034Z,99.99
2018-02-05T03:52:41.802Z,99.99
2018-02-05T03:54:33.616Z,99.99
2018-02-05T03:55:33.567Z,99.99
2018-02-05T03:57:25.495Z,99.99
2018-02-05T03:58:25.379Z,99.99
2018-02-05T04:00:17.119Z,99.99
2018-02-05T04:01:17.001Z,99.99
2018-02-05T04:03:08.886Z,99.99
2018-02-05T04:04:08.808Z,99.99
2018-02-05T04:06:01.353Z,99.99
2018-02-05T04:07:00.603Z,99.99
2018-02-05T04:08:52.424Z,99.99
2018-02-05T04:09:52.277Z,99.99
2018-02-05T04:11:44.173Z,99.99
2018-02-05T04:12:43.978Z,99.99
2018-02-05T04:14:35.797Z,99.99
2018-02-05T04:15:35.673Z,99.99
2018-02-05T04:17:27.516Z,99.99
2018-02-05T04:18:27.753Z,99.99
2018-02-05T04:20:19.374Z,99.99
2018-02-05T04:21:19.070Z,99.99
2018-02-05T04:23:11.016Z,99.99
2018-02-05T04:24:10.908Z,99.99
2018-02-05T04:26:02.930Z,99.99
2018-02-05T04:27:02.618Z,99.99
2018-02-05T04:28:54.394Z,99.99
2018-02-05T04:29:55.020Z,99.99
2018-02-05T04:31:46.070Z,99.99
2018-02-05T04:32:45.960Z,99.99
2018-02-05T04:34:37.765Z,99.99
2018-02-05T04:35:37.830Z,99.99
2018-02-05T04:37:29.476Z,99.99
2018-02-05T04:38:29.386Z,99.99
2018-02-05T04:40:21.089Z,99.99
2018-02-05T04:41:21.014Z,99.99
2018-02-05T04:43:12.780Z,99.99
2018-02-05T04:44:12.715Z,99.99
2018-02-05T04:46:04.478Z,99.99
2018-02-05T04:47:04.402Z,99.99
2018-02-05T04:48:56.219Z,99.99
2018-02-05T04:49:56.121Z,99.99
2018-02-05T04:51:47.936Z,99.99
2018-02-05T04:52:47.846Z,99.99
2018-02-05T04:54:39.641Z,99.99
2018-02-05T04:55:39.527Z,99.99
2018-02-05T04:57:31.269Z,99.99
2018-02-05T04:58:31.216Z,99.99
2018-02-05T05:00:23.079Z,99.99
2018-02-05T05:01:22.904Z,99.99
2018-02-05T05:03:14.651Z,99.99
2018-02-05T05:04:14.547Z,99.99
2018-02-05T05:06:06.657Z,99.99
2018-02-05T05:07:06.386Z,99.99
2018-02-05T05:08:58.828Z,99.99
2018-02-05T05:09:58.095Z,99.99
2018-02-05T05:11:49.902Z,99.99
2018-02-05T05:12:50.023Z,99.99
2018-02-05T05:14:41.793Z,99.99
2018-02-05T05:15:41.718Z,99.99
2018-02-05T05:17:33.419Z,99.99
2018-02-05T05:18:33.400Z,99.99
2018-02-05T05:20:25.227Z,99.99
2018-02-05T05:21:25.054Z,99.99
2018-02-05T05:23:16.851Z,99.99
2018-02-05T05:24:16.879Z,99.99
2018-02-05T05:26:08.642Z,99.99
2018-02-05T05:27:08.532Z,99.99
2018-02-05T05:29:00.288Z,99.99
2018-02-05T05:30:00.290Z,99.99
2018-02-05T05:31:52.214Z,99.99
2018-02-05T05:32:51.915Z,99.99
2018-02-05T05:34:43.712Z,99.99
2018-02-05T05:35:43.570Z,99.99
2018-02-05T05:37:35.358Z,99.99
2018-02-05T05:38:35.388Z,99.99
2018-02-05T05:40:27.154Z,99.99
2018-02-05T05:41:27.017Z,99.99
2018-02-05T05:43:19.185Z,99.99
2018-02-05T05:44:19.021Z,99.99
2018-02-05T05:46:10.790Z,99.99
2018-02-05T05:47:10.664Z,99.99
2018-02-05T05:49:02.518Z,99.99
2018-02-05T05:50:02.395Z,99.99
2018-02-05T05:51:54.148Z,99.99
2018-02-05T05:52:54.058Z,99.99
2018-02-05T05:54:45.922Z,99.99
2018-02-05T05:55:45.953Z,99.99
2018-02-05T05:57:37.669Z,99.99
2018-02-05T05:58:37.583Z,99.99
2018-02-05T06:00:29.375Z,99.99
2018-02-05T06:01:29.313Z,99.99
2018-02-05T06:03:21.340Z,99.99
2018-02-05T06:04:20.929Z,99.99
2018-02-05T06:06:12.768Z,99.99
2018-02-05T06:07:12.649Z,99.99
2018-02-05T06:09:04.346Z,99.99
2018-02-05T06:10:04.321Z,99.99
2018-02-05T06:11:56.141Z,99.99
2018-02-05T06:12:56.115Z,99.99
2018-02-05T06:14:47.765Z,99.99
2018-02-05T06:15:47.638Z,99.99
2018-02-05T06:17:39.430Z,99.99
2018-02-05T06:18:39.306Z,99.99
2018-02-05T06:20:31.141Z,99.99
2018-02-05T06:21:31.004Z,99.99
2018-02-05T06:23:22.825Z,99.99
2018-02-05T06:24:22.750Z,99.99
2018-02-05T06:26:15.300Z,99.99
2018-02-05T06:27:15.102Z,99.99
2018-02-05T06:29:06.862Z,99.99
2018-02-05T06:30:06.788Z,99.99
2018-02-05T06:31:58.531Z,99.99
2018-02-05T06:32:58.483Z,99.99
2018-02-05T06:34:50.162Z,99.99
2018-02-05T06:35:50.157Z,99.99
2018-02-05T06:37:41.859Z,99.99
2018-02-05T06:38:41.777Z,99.99
2018-02-05T06:40:33.603Z,99.99
2018-02-05T06:41:33.529Z,99.99
2018-02-05T06:43:25.267Z,99.99
2018-02-05T06:44:25.198Z,99.99
2018-02-05T06:46:16.940Z,99.99
2018-02-05T06:47:17.107Z,99.99
2018-02-05T06:49:08.798Z,99.99
2018-02-05T06:50:08.558Z,99.99
2018-02-05T06:52:00.389Z,99.99
2018-02-05T06:53:00.239Z,99.99
2018-02-05T06:54:52.016Z,99.99
2018-02-05T06:55:51.976Z,99.99
2018-02-05T06:57:43.862Z,99.99
2018-02-05T06:58:43.648Z,99.99
2018-02-05T07:00:35.424Z,99.99
2018-02-05T07:01:35.338Z,99.99
2018-02-05T07:03:27.384Z,99.99
2018-02-05T07:04:27.108Z,99.99
2018-02-05T07:06:19.020Z,99.99
2018-02-05T07:07:18.828Z,99.99
2018-02-05T07:09:11.970Z,99.99
2018-02-05T07:10:10.951Z,99.99
2018-02-05T07:12:02.636Z,99.99
2018-02-05T07:13:02.484Z,99.99
2018-02-05T07:14:54.221Z,99.99
2018-02-05T07:15:54.128Z,99.99
2018-02-05T07:17:45.921Z,99.99
2018-02-05T07:18:45.824Z,99.99
2018-02-05T07:20:37.849Z,99.99
2018-02-05T07:21:37.648Z,99.99
2018-02-05T07:23:29.778Z,99.99
2018-02-05T07:24:29.490Z,99.99
2018-02-05T07:26:21.300Z,99.99
2018-02-05T07:27:21.250Z,99.99
2018-02-05T07:29:13.084Z,99.99
2018-02-05T07:30:12.930Z,99.99
2018-02-05T07:32:04.708Z,99.99
2018-02-05T07:33:04.639Z,99.99
2018-02-05T07:34:56.393Z,99.99
2018-02-05T07:35:56.419Z,99.99
2018-02-05T07:37:48.066Z,99.99
2018-02-05T07:38:48.061Z,99.99
2018-02-05T07:40:39.805Z,99.99
2018-02-05T07:41:39.783Z,99.99
2018-02-05T07:43:31.467Z,99.99
2018-02-05T07:44:31.445Z,99.99
2018-02-05T07:46:23.304Z,99.99
2018-02-05T07:47:23.241Z,99.99
2018-02-05T07:49:15.122Z,99.99
2018-02-05T07:50:14.977Z,99.99
2018-02-05T07:52:06.743Z,99.99
2018-02-05T07:53:06.707Z,99.95
2018-02-05T07:54:58.496Z,99.99
2018-02-05T07:55:58.383Z,99.95
2018-02-05T07:57:50.128Z,99.85
2018-02-05T07:58:50.181Z,99.99
2018-02-05T08:00:41.812Z,99.04
2018-02-05T08:01:41.746Z,99.19
2018-02-05T08:03:34.313Z,99.33
2018-02-05T08:04:33.541Z,99.33
2018-02-05T08:06:25.257Z,99.66
2018-02-05T08:07:25.161Z,99.99
2018-02-05T08:09:16.951Z,99.99
2018-02-05T08:10:16.876Z,99.99
2018-02-05T08:12:08.629Z,99.89
2018-02-05T08:13:08.652Z,99.99
2018-02-05T08:15:00.332Z,99.14
2018-02-05T08:16:00.359Z,99.99
2018-02-05T08:17:52.069Z,98.90
2018-02-05T08:18:52.012Z,99.19
2018-02-05T08:20:43.816Z,99.19
2018-02-05T08:21:43.740Z,99.09
2018-02-05T08:23:36.132Z,98.71
2018-02-05T08:24:35.498Z,98.52
2018-02-05T08:26:27.389Z,98.52
2018-02-05T08:27:27.257Z,98.33
2018-02-05T08:29:19.260Z,98.24
2018-02-05T08:30:19.202Z,98.52
2018-02-05T08:32:10.940Z,98.33
2018-02-05T08:33:10.858Z,98.52
2018-02-05T08:35:02.781Z,98.71
2018-02-05T08:36:02.718Z,98.62
2018-02-05T08:37:54.755Z,95.93
2018-02-05T08:38:54.424Z,94.37
2018-02-05T08:40:46.167Z,90.72
2018-02-05T08:41:46.288Z,89.63
2018-02-05T08:43:38.051Z,86.55
2018-02-05T08:44:37.956Z,86.02
2018-02-05T08:46:29.775Z,84.36
2018-02-05T08:47:29.823Z,83.80
2018-02-05T08:49:21.502Z,84.50
2018-02-05T08:50:21.526Z,82.94
2018-02-05T08:52:13.290Z,84.27
2018-02-05T08:53:13.116Z,83.17
2018-02-05T08:55:04.901Z,83.03
2018-02-05T08:56:04.832Z,82.08
2018-02-05T08:57:56.663Z,79.99
2018-02-05T08:58:56.596Z,80.27
2018-02-05T09:00:48.474Z,79.10
2018-02-05T09:01:48.289Z,79.47
2018-02-05T09:03:40.280Z,80.76
2018-02-05T09:04:40.063Z,81.95
2018-02-05T09:06:31.962Z,84.00
2018-02-05T09:07:31.854Z,85.08
2018-02-05T09:09:23.859Z,85.89
2018-02-05T09:10:23.581Z,85.32
2018-02-05T09:12:15.484Z,86.74
2018-02-05T09:13:15.346Z,86.70
2018-02-05T09:15:07.270Z,87.21
2018-02-05T09:16:07.199Z,86.55
2018-02-05T09:17:58.983Z,84.70
2018-02-05T09:18:58.924Z,84.23
2018-02-05T09:20:50.648Z,82.81
2018-02-05T09:21:50.575Z,82.18
2018-02-05T09:23:42.464Z,81.24
2018-02-05T09:24:42.370Z,80.10
2018-02-05T09:26:34.314Z,79.44
2018-02-05T09:27:34.103Z,80.19
2018-02-05T09:29:25.966Z,79.83
2018-02-05T09:30:25.835Z,81.44
2018-02-05T09:32:17.661Z,81.92
2018-02-05T09:33:17.562Z,83.18
2018-02-05T09:35:09.344Z,81.10
2018-02-05T09:36:09.287Z,80.63
2018-02-05T09:38:01.144Z,79.91
2018-02-05T09:39:01.062Z,79.82
2018-02-05T09:40:53.024Z,77.83
2018-02-05T09:41:52.978Z,77.16
2018-02-05T09:43:44.747Z,74.98
2018-02-05T09:44:44.692Z,75.84
2018-02-05T09:46:36.486Z,74.60
2018-02-05T09:47:36.410Z,74.83
2018-02-05T09:49:28.361Z,73.56
2018-02-05T09:50:28.292Z,73.65
2018-02-05T09:52:20.505Z,73.52
2018-02-05T09:53:19.997Z,73.90
2018-02-05T09:55:11.819Z,74.85
2018-02-05T09:56:11.787Z,75.51
2018-02-05T09:58:03.513Z,74.75
2018-02-05T09:59:03.502Z,74.28
2018-02-05T10:00:55.241Z,74.79
2018-02-05T10:01:55.181Z,74.56
2018-02-05T10:03:46.976Z,74.41
2018-02-05T10:04:46.920Z,73.05
2018-02-05T10:06:39.377Z,72.71
2018-02-05T10:07:38.923Z,72.52
2018-02-05T10:09:30.692Z,72.61
2018-02-05T10:10:30.599Z,70.81
2018-02-05T10:12:22.439Z,71.76
2018-02-05T10:13:22.223Z,71.19
2018-02-05T10:15:14.132Z,69.86
2018-02-05T10:16:14.068Z,69.77
2018-02-05T10:18:05.825Z,69.77
2018-02-05T10:19:05.765Z,69.29
2018-02-05T10:20:57.983Z,67.87
2018-02-05T10:21:57.707Z,66.16
2018-02-05T10:23:49.585Z,65.75
2018-02-05T10:24:49.523Z,66.89
2018-02-05T10:26:41.258Z,68.59
2018-02-05T10:27:41.295Z,67.55
2018-02-05T10:29:33.138Z,68.12
2018-02-05T10:30:33.060Z,68.06
2018-02-05T10:32:25.851Z,66.70
2018-02-05T10:33:24.847Z,66.13
2018-02-05T10:35:16.640Z,67.74
2018-02-05T10:36:16.590Z,67.74
2018-02-05T10:38:08.444Z,67.65
2018-02-05T10:39:08.383Z,68.50
2018-02-05T10:41:00.252Z,67.90
2018-02-05T10:42:00.181Z,68.84
2018-02-05T10:43:52.123Z,68.59
2018-02-05T10:44:52.050Z,68.12
2018-02-05T10:46:43.812Z,69.22
2018-02-05T10:47:43.718Z,68.75
2018-02-05T10:49:35.488Z,68.56
2018-02-05T10:50:35.459Z,69.13
2018-02-05T10:52:27.299Z,68.18
2018-02-05T10:53:27.253Z,69.41
2018-02-05T10:55:19.036Z,68.79
2018-02-05T10:56:18.989Z,68.18
2018-02-05T10:58:10.856Z,67.80
2018-02-05T10:59:10.738Z,66.95
2018-02-05T11:01:02.572Z,67.24
2018-02-05T11:02:02.584Z,67.52
2018-02-05T11:03:54.344Z,68.75
2018-02-05T11:04:54.246Z,68.84
2018-02-05T11:06:46.037Z,69.32
2018-02-05T11:07:45.964Z,68.46
2018-02-05T11:09:37.771Z,68.31
2018-02-05T11:10:37.715Z,68.50
2018-02-05T11:12:29.583Z,68.37
2018-02-05T11:13:29.498Z,68.08
2018-02-05T11:15:21.286Z,69.13
2018-02-05T11:16:21.218Z,69.89
2018-02-05T11:18:13.034Z,71.59
2018-02-05T11:19:12.966Z,71.21
2018-02-05T11:21:04.782Z,70.93
2018-02-05T11:22:04.688Z,69.98
2018-02-05T11:23:56.525Z,69.51
2018-02-05T11:24:56.599Z,69.70
2018-02-05T11:26:48.475Z,70.07
2018-02-05T11:27:48.418Z,69.60
2018-02-05T11:29:40.268Z,69.70
2018-02-05T11:30:40.098Z,70.26
2018-02-05T11:32:31.851Z,69.22
2018-02-05T11:33:31.903Z,68.94
2018-02-05T11:35:23.718Z,69.22
2018-02-05T11:36:23.695Z,69.13
2018-02-05T11:38:16.049Z,69.70
2018-02-05T11:39:15.336Z,69.70
2018-02-05T11:41:07.195Z,70.17
2018-02-05T11:42:07.091Z,69.32
2018-02-05T11:43:59.219Z,69.38
2018-02-05T11:44:58.797Z,69.57
2018-02-05T11:46:50.622Z,70.17
2018-02-05T11:47:50.776Z,70.64
2018-02-05T11:49:42.449Z,68.75
2018-02-05T11:50:42.284Z,69.60
2018-02-05T11:52:33.986Z,68.84
2018-02-05T11:53:34.006Z,68.81
2018-02-05T11:55:25.749Z,69.76
2018-02-05T11:56:25.648Z,70.07
2018-02-05T11:58:17.485Z,70.04
2018-02-05T11:59:17.421Z,70.07
2018-02-05T12:01:09.138Z,68.43
2018-02-05T12:02:09.008Z,67.77
2018-02-05T12:04:00.752Z,67.77
2018-02-05T12:05:00.682Z,68.62
2018-02-05T12:06:52.450Z,68.15
2018-02-05T12:07:52.367Z,67.96
2018-02-05T12:09:44.294Z,67.68
2018-02-05T12:10:44.140Z,68.24
2018-02-05T12:12:35.833Z,67.77
2018-02-05T12:13:35.744Z,68.05
2018-02-05T12:15:27.502Z,67.68
2018-02-05T12:16:27.428Z,67.90
2018-02-05T12:18:19.398Z,68.05
2018-02-05T12:19:19.476Z,68.37
2018-02-05T12:21:11.079Z,67.86
2018-02-05T12:22:11.212Z,68.08
2018-02-05T12:24:02.803Z,67.49
2018-02-05T12:25:02.722Z,67.58
2018-02-05T12:26:54.498Z,68.24
2018-02-05T12:27:54.389Z,68.65
2018-02-05T12:29:46.145Z,68.65
2018-02-05T12:30:46.073Z,68.43
2018-02-05T12:32:37.894Z,67.49
2018-02-05T12:33:37.764Z,66.57
2018-02-05T12:35:29.630Z,65.50
2018-02-05T12:36:29.547Z,66.28
2018-02-05T12:38:21.343Z,65.50
2018-02-05T12:39:21.271Z,65.69
2018-02-05T12:41:13.049Z,65.50
2018-02-05T12:42:12.959Z,65.78
2018-02-05T12:44:04.785Z,66.28
2018-02-05T12:45:04.880Z,66.38
2018-02-05T12:46:56.468Z,66.38
2018-02-05T12:47:56.330Z,66.28
2018-02-05T12:49:48.122Z,66.47
2018-02-05T12:50:48.117Z,67.33
2018-02-05T12:52:39.818Z,65.34
2018-02-05T12:53:39.742Z,64.96
2018-02-05T12:55:31.549Z,64.68
2018-02-05T12:56:31.534Z,64.07
2018-02-05T12:58:23.254Z,64.68
2018-02-05T12:59:23.225Z,63.45
2018-02-05T13:01:14.952Z,64.30
2018-02-05T13:02:14.883Z,64.49
2018-02-05T13:04:06.629Z,64.11
2018-02-05T13:05:06.556Z,64.30
2018-02-05T13:06:58.327Z,64.11
2018-02-05T13:07:58.249Z,64.58
2018-02-05T13:09:50.036Z,64.96
2018-02-05T13:10:49.966Z,65.34
2018-02-05T13:12:41.831Z,63.73
2018-02-05T13:13:41.665Z,63.07
2018-02-05T13:15:33.451Z,64.01
2018-02-05T13:16:33.360Z,64.71
2018-02-05T13:18:25.211Z,64.61
2018-02-05T13:19:25.296Z,65.47
2018-02-05T13:21:17.907Z,64.04
2018-02-05T13:22:17.602Z,65.00
2018-02-05T13:24:09.486Z,64.30
2018-02-05T13:25:09.321Z,65.44
2018-02-05T13:27:01.299Z,65.06
2018-02-05T13:28:01.161Z,65.15
2018-02-05T13:29:53.440Z,64.58
2018-02-05T13:30:53.363Z,65.25
2018-02-05T13:32:45.650Z,65.34
2018-02-05T13:33:45.192Z,65.06
2018-02-05T13:35:37.353Z,65.15
2018-02-05T13:36:37.898Z,65.72
2018-02-05T13:38:29.106Z,66.09
2018-02-05T13:39:28.956Z,66.19
2018-02-05T13:41:20.680Z,67.14
2018-02-05T13:42:20.592Z,68.46
2018-02-05T13:44:12.365Z,68.65
2018-02-05T13:45:12.262Z,67.61
2018-02-05T13:47:04.134Z,66.76
2018-02-05T13:48:04.031Z,67.24
2018-02-05T13:49:55.806Z,66.28
2018-02-05T13:50:55.716Z,66.09
2018-02-05T13:52:47.492Z,67.52
2018-02-05T13:53:47.435Z,67.52
2018-02-05T13:55:39.492Z,68.56
2018-02-05T13:56:39.354Z,69.09
2018-02-05T13:58:31.127Z,68.52
2018-02-05T13:59:31.036Z,69.19
2018-02-05T14:01:22.760Z,70.14
2018-02-05T14:02:22.704Z,70.98
2018-02-05T14:04:14.568Z,71.65
2018-02-05T14:05:14.484Z,71.55
2018-02-05T14:07:06.467Z,69.28
2018-02-05T14:08:06.237Z,69.76
2018-02-05T14:09:58.022Z,70.70
2018-02-05T14:10:57.943Z,71.74
2018-02-05T14:12:49.753Z,71.93
2018-02-05T14:13:49.618Z,70.48
2018-02-05T14:15:41.423Z,70.86
2018-02-05T14:16:41.353Z,71.61
2018-02-05T14:18:33.143Z,71.23
2018-02-05T14:19:33.107Z,71.80
2018-02-05T14:21:24.981Z,71.99
2018-02-05T14:22:24.814Z,72.75
2018-02-05T14:24:16.557Z,71.71
2018-02-05T14:25:16.468Z,71.42
2018-02-05T14:27:08.537Z,72.56
2018-02-05T14:28:08.353Z,71.33
2018-02-05T14:30:00.127Z,70.76
2018-02-05T14:31:00.013Z,70.10
2018-02-05T14:32:51.789Z,68.96
2018-02-05T14:33:51.705Z,67.55
2018-02-05T14:35:43.455Z,65.94
2018-02-05T14:36:43.377Z,66.69
2018-02-05T14:38:35.244Z,66.88
2018-02-05T14:39:35.210Z,67.26
2018-02-05T14:41:27.009Z,66.41
2018-02-05T14:42:26.819Z,66.60
2018-02-05T14:44:18.743Z,67.74
2018-02-05T14:45:18.696Z,68.59
2018-02-05T14:47:10.313Z,67.93
2018-02-05T14:48:10.241Z,66.79
2018-02-05T14:50:02.085Z,66.79
2018-02-05T14:51:01.991Z,66.50
2018-02-05T14:52:53.810Z,67.64
2018-02-05T14:53:53.696Z,66.79
2018-02-05T14:55:45.615Z,65.66
2018-02-05T14:56:45.326Z,65.09
2018-02-05T14:58:37.118Z,66.50
2018-02-05T14:59:37.027Z,67.45
2018-02-05T15:01:28.809Z,68.30
2018-02-05T15:02:28.705Z,68.49
2018-02-05T15:04:20.547Z,68.49
2018-02-05T15:05:20.380Z,68.30
2018-02-05T15:07:12.338Z,68.49
2018-02-05T15:08:12.168Z,69.06
2018-02-05T15:10:04.091Z,69.63
2018-02-05T15:11:03.876Z,70.10
2018-02-05T15:12:55.743Z,69.82
2018-02-05T15:13:55.656Z,70.95
2018-02-05T15:15:47.368Z,70.95
2018-02-05T15:16:47.306Z,71.52
2018-02-05T15:18:39.086Z,71.90
2018-02-05T15:19:38.996Z,71.20
2018-02-05T15:21:30.888Z,70.73
2018-02-05T15:22:30.783Z,69.49
2018-02-05T15:24:22.576Z,69.68
2018-02-05T15:25:22.464Z,69.49
2018-02-05T15:27:14.289Z,68.46
2018-02-05T15:28:14.134Z,68.17
2018-02-05T15:30:05.871Z,69.97
2018-02-05T15:31:05.755Z,69.40
2018-02-05T15:32:57.533Z,69.59
2018-02-05T15:33:57.430Z,69.49
2018-02-05T15:35:49.366Z,69.97
2018-02-05T15:36:49.165Z,69.49
2018-02-05T15:38:41.542Z,69.97
2018-02-05T15:39:41.014Z,70.16
2018-02-05T15:41:32.861Z,70.44
2018-02-05T15:42:32.749Z,70.82
2018-02-05T15:44:25.180Z,70.16
2018-02-05T15:45:24.535Z,69.97
2018-02-05T15:47:16.408Z,72.24
2018-02-05T15:48:16.326Z,71.20
2018-02-05T15:50:08.596Z,71.20
2018-02-05T15:51:08.012Z,71.58
2018-02-05T15:52:59.794Z,72.05
2018-02-05T15:53:59.774Z,71.64
2018-02-05T15:55:51.645Z,71.35
2018-02-05T15:56:51.478Z,70.21
2018-02-05T15:58:43.190Z,69.97
2018-02-05T15:59:43.130Z,70.12
2018-02-05T16:01:34.966Z,69.93
2018-02-05T16:02:34.814Z,69.74
2018-02-05T16:04:26.585Z,70.69
2018-02-05T16:05:26.515Z,70.82
2018-02-05T16:07:51.124Z,69.93
2018-02-05T16:08:18.300Z,70.59
2018-02-05T16:10:10.073Z,70.78
2018-02-05T16:11:10.162Z,71.35
2018-02-05T16:13:01.833Z,69.84
2018-02-05T16:14:01.726Z,70.03
2018-02-05T16:15:53.695Z,71.16
2018-02-05T16:16:53.630Z,71.35
2018-02-05T16:18:45.524Z,70.97
2018-02-05T16:19:45.342Z,71.64
2018-02-05T16:21:37.140Z,72.30
2018-02-05T16:22:37.144Z,73.43
2018-02-05T16:24:28.792Z,72.30
2018-02-05T16:25:28.714Z,73.71
2018-02-05T16:27:20.519Z,73.81
2018-02-05T16:28:20.477Z,74.38
2018-02-05T16:30:12.487Z,74.95
2018-02-05T16:31:12.153Z,75.42
2018-02-05T16:33:04.077Z,73.33
2018-02-05T16:34:04.141Z,74.66
2018-02-05T16:35:55.638Z,76.26
2018-02-05T16:36:55.564Z,75.95
2018-02-05T16:38:47.370Z,76.26
2018-02-05T16:39:47.236Z,76.89
2018-02-05T16:41:39.000Z,77.08
2018-02-05T16:42:38.956Z,77.83
2018-02-05T16:44:30.686Z,75.95
2018-02-05T16:45:30.596Z,74.81
2018-02-05T16:47:22.501Z,74.95
2018-02-05T16:48:22.263Z,74.09
2018-02-05T16:50:14.105Z,74.19
2018-02-05T16:51:13.946Z,74.09
2018-02-05T16:53:05.787Z,75.98
2018-02-05T16:54:05.734Z,75.98
2018-02-05T16:55:57.450Z,75.42
2018-02-05T16:56:57.376Z,76.17
2018-02-05T16:58:49.304Z,77.02
2018-02-05T16:59:49.196Z,76.93
2018-02-05T17:01:40.951Z,77.31
2018-02-05T17:02:40.959Z,77.64
2018-02-05T17:04:32.664Z,78.53
2018-02-05T17:05:32.584Z,79.72
2018-02-05T17:07:24.330Z,80.10
2018-02-05T17:08:24.259Z,79.82
2018-02-05T17:10:16.234Z,79.25
2018-02-05T17:11:16.208Z,78.87
2018-02-05T17:13:07.885Z,79.82
2018-02-05T17:14:07.844Z,78.97
2018-02-05T17:15:59.668Z,80.48
2018-02-05T17:16:59.555Z,80.19
2018-02-05T17:18:51.303Z,81.33
2018-02-05T17:19:51.222Z,80.95
2018-02-05T17:21:42.983Z,82.18
2018-02-05T17:22:42.923Z,82.56
2018-02-05T17:24:34.633Z,82.56
2018-02-05T17:25:34.617Z,83.88
2018-02-05T17:27:26.291Z,83.31
2018-02-05T17:28:26.311Z,83.97
2018-02-05T17:30:18.030Z,83.88
2018-02-05T17:31:17.948Z,84.35
2018-02-05T17:33:09.680Z,83.97
2018-02-05T17:34:09.599Z,84.54
2018-02-05T17:36:01.391Z,84.73
2018-02-05T17:37:01.296Z,84.73
2018-02-05T17:38:53.145Z,84.73
2018-02-05T17:39:53.146Z,84.07
2018-02-05T17:41:44.731Z,83.88
2018-02-05T17:42:44.654Z,83.88
2018-02-05T17:44:36.481Z,84.54
2018-02-05T17:45:36.385Z,85.20
2018-02-05T17:47:28.156Z,85.20
2018-02-05T17:48:28.085Z,85.20
2018-02-05T17:50:19.896Z,86.05
2018-02-05T17:51:19.745Z,86.24
2018-02-05T17:53:11.621Z,85.58
2018-02-05T17:54:11.510Z,85.96
2018-02-05T17:56:03.318Z,85.86
2018-02-05T17:57:03.185Z,86.62
2018-02-05T17:58:54.948Z,86.15
2018-02-05T17:59:54.876Z,86.80
2018-02-05T18:01:46.614Z,87.66
2018-02-05T18:02:46.531Z,87.47
2018-02-05T18:04:38.281Z,87.47
2018-02-05T18:05:38.210Z,87.28
2018-02-05T18:07:30.074Z,87.66
2018-02-05T18:08:29.965Z,87.66
2018-02-05T18:10:21.694Z,87.52
2018-02-05T18:11:21.600Z,87.52
2018-02-05T18:13:13.349Z,87.80
2018-02-05T18:14:13.308Z,87.90
2018-02-05T18:16:05.022Z,87.62
2018-02-05T18:17:04.999Z,87.52
2018-02-05T18:18:56.703Z,88.09
2018-02-05T18:19:56.639Z,88.93
2018-02-05T18:21:48.384Z,88.84
2018-02-05T18:22:48.338Z,88.84
2018-02-05T18:24:40.052Z,87.90
2018-02-05T18:25:39.997Z,87.99